createdAt,value
2018-03-24T00:00:52.869Z,7.80
2018-03-24T00:03:56.136Z,9.00
2018-03-24T00:07:00.282Z,8.23
2018-03-24T00:10:04.677Z,8.83
2018-03-24T00:13:07.950Z,9.10
2018-03-24T00:16:11.222Z,9.17
2018-03-24T00:19:14.489Z,8.43
2018-03-24T00:22:17.939Z,8.30
2018-03-24T00:25:21.223Z,8.40
2018-03-24T00:28:24.484Z,8.90
2018-03-24T00:31:28.521Z,9.37
2018-03-24T00:34:31.780Z,9.18
2018-03-24T00:37:35.917Z,10.60
2018-03-24T00:40:39.940Z,9.77
2018-03-24T00:43:43.208Z,10.03
2018-03-24T00:46:46.546Z,9.90
2018-03-24T00:49:49.831Z,10.40
2018-03-24T00:52:53.129Z,10.27
2018-03-24T00:55:56.462Z,10.40
2018-03-24T00:58:59.742Z,10.37
2018-03-24T01:02:03.004Z,9.60
2018-03-24T01:05:07.127Z,9.53
2018-03-24T01:08:11.172Z,10.37
2018-03-24T01:11:14.449Z,11.50
2018-03-24T01:14:17.833Z,10.68
2018-03-24T01:17:21.894Z,10.03
2018-03-24T01:20:25.183Z,9.10
2018-03-24T01:23:28.476Z,10.27
2018-03-24T01:26:31.742Z,9.70
2018-03-24T01:29:35.881Z,11.33
2018-03-24T01:32:39.168Z,10.57
2018-03-24T01:35:42.448Z,9.60
2018-03-24T01:38:46.502Z,10.30
2018-03-24T01:41:49.799Z,10.07
2018-03-24T01:44:53.048Z,9.67
2018-03-24T01:47:56.317Z,10.90
2018-03-24T01:50:59.586Z,10.70
2018-03-24T01:54:02.876Z,10.90
2018-03-24T01:57:06.472Z,10.80
2018-03-24T02:00:10.495Z,11.07
2018-03-24T02:03:13.768Z,10.00
2018-03-24T02:06:18.075Z,10.30
2018-03-24T02:09:21.420Z,11.27
2018-03-24T02:12:24.701Z,9.80
2018-03-24T02:15:28.745Z,10.63
2018-03-24T02:18:32.081Z,10.37
2018-03-24T02:21:51.089Z,10.77
2018-03-24T02:24:54.371Z,9.80
2018-03-24T02:27:58.432Z,10.60
2018-03-24T02:31:01.721Z,10.23
2018-03-24T02:34:05.026Z,10.63
2018-03-24T02:37:08.319Z,10.60
2018-03-24T02:40:11.882Z,9.73
2018-03-24T02:43:15.199Z,10.57
2018-03-24T02:46:18.482Z,10.27
2018-03-24T02:49:22.571Z,11.23
2018-03-24T02:52:26.318Z,10.87
2018-03-24T02:55:30.366Z,12.20
2018-03-24T02:58:33.661Z,12.07
2018-03-24T03:01:36.932Z,13.07
2018-03-24T03:04:40.284Z,12.17
2018-03-24T03:07:43.571Z,12.93
2018-03-24T03:10:46.928Z,14.27
2018-03-24T03:13:50.311Z,13.87
2018-03-24T03:16:54.384Z,13.87
2018-03-24T03:19:57.660Z,14.80
2018-03-24T03:23:00.922Z,13.53
2018-03-24T03:26:04.960Z,14.10
2018-03-24T03:29:08.440Z,15.43
2018-03-24T03:32:19.907Z,15.00
2018-03-24T03:35:23.189Z,13.48
2018-03-24T03:38:26.461Z,14.17
2018-03-24T03:41:29.752Z,13.93
2018-03-24T03:44:33.022Z,13.00
2018-03-24T03:47:36.350Z,13.93
2018-03-24T03:50:39.617Z,13.13
2018-03-24T03:53:42.909Z,11.97
2018-03-24T03:56:46.974Z,12.20
2018-03-24T03:59:51.057Z,11.97
2018-03-24T04:02:54.341Z,12.60
2018-03-24T04:05:58.565Z,11.60
2018-03-24T04:09:02.138Z,12.03
2018-03-24T04:12:05.464Z,10.50
2018-03-24T04:15:09.523Z,12.40
2018-03-24T04:18:12.917Z,10.77
2018-03-24T04:21:16.192Z,11.00
2018-03-24T04:24:19.486Z,11.07
2018-03-24T04:27:22.785Z,9.40
2018-03-24T04:30:26.065Z,10.50
2018-03-24T04:33:30.112Z,10.40
2018-03-24T04:36:33.425Z,10.97
2018-03-24T04:39:36.799Z,10.23
2018-03-24T04:42:40.101Z,10.83
2018-03-24T04:45:43.386Z,9.67
2018-03-24T04:48:46.665Z,9.67
2018-03-24T04:51:50.706Z,11.47
2018-03-24T04:54:54.005Z,11.87
2018-03-24T04:57:57.594Z,13.00
2018-03-24T05:01:01.647Z,11.83
2018-03-24T05:04:04.957Z,10.30
2018-03-24T05:07:08.249Z,10.83
2018-03-24T05:10:11.539Z,11.73
2018-03-24T05:13:14.866Z,12.23
2018-03-24T05:16:18.145Z,11.03
2018-03-24T05:19:21.437Z,11.80
2018-03-24T05:22:24.804Z,11.60
2018-03-24T05:25:28.085Z,12.87
2018-03-24T05:28:32.170Z,11.47
2018-03-24T05:31:35.465Z,12.50
2018-03-24T05:34:38.793Z,13.47
2018-03-24T05:37:44.106Z,11.07
2018-03-24T05:40:47.802Z,12.93
2018-03-24T05:43:55.531Z,13.07
2018-03-24T05:46:58.901Z,11.87
2018-03-24T05:50:03.181Z,11.80
2018-03-24T05:53:07.983Z,10.90
2018-03-24T05:56:11.277Z,11.27
2018-03-24T05:59:14.860Z,11.73
2018-03-24T06:02:18.255Z,10.57
2018-03-24T06:05:21.554Z,10.73
2018-03-24T06:08:25.983Z,10.83
2018-03-24T06:11:29.997Z,8.93
2018-03-24T06:14:33.317Z,10.80
2018-03-24T06:17:36.700Z,11.07
2018-03-24T06:20:40.120Z,10.27
2018-03-24T06:23:43.678Z,7.93
2018-03-24T06:26:46.937Z,7.87
2018-03-24T06:29:50.252Z,8.87
2018-03-24T06:32:53.518Z,7.67
2018-03-24T06:35:58.711Z,6.73
2018-03-24T06:39:03.839Z,6.63
2018-03-24T06:42:07.514Z,6.37
2018-03-24T06:45:11.354Z,6.77
2018-03-24T06:48:14.616Z,6.83
2018-03-24T06:51:17.926Z,9.67
2018-03-24T06:54:22.037Z,8.63
2018-03-24T06:57:25.444Z,6.67
2018-03-24T07:00:28.756Z,7.27
2018-03-24T07:03:32.021Z,7.23
2018-03-24T07:06:35.295Z,6.67
2018-03-24T07:09:39.334Z,6.80
2018-03-24T07:12:42.884Z,7.50
2018-03-24T07:15:46.987Z,8.03
2018-03-24T07:18:51.747Z,8.67
2018-03-24T07:21:55.277Z,8.97
2018-03-24T07:24:58.630Z,8.80
2018-03-24T07:28:01.936Z,9.17
2018-03-24T07:31:05.259Z,9.60
2018-03-24T07:34:09.515Z,9.63
2018-03-24T07:37:12.840Z,8.90
2018-03-24T07:40:16.115Z,7.20
2018-03-24T07:43:19.602Z,7.60
2018-03-24T07:46:22.886Z,8.27
2018-03-24T07:49:28.086Z,7.27
2018-03-24T07:52:31.507Z,6.37
2018-03-24T07:55:36.367Z,6.53
2018-03-24T07:58:40.468Z,6.10
2018-03-24T08:01:43.883Z,5.40
2018-03-24T08:04:47.795Z,5.67
2018-03-24T08:07:51.107Z,6.67
2018-03-24T08:10:54.968Z,6.27
2018-03-24T08:13:59.751Z,6.70
2018-03-24T08:17:03.109Z,5.63
2018-03-24T08:20:06.419Z,6.40
2018-03-24T08:23:09.674Z,5.60
2018-03-24T08:26:12.940Z,4.90
2018-03-24T08:29:16.261Z,5.77
2018-03-24T08:32:19.635Z,5.07
2018-03-24T08:35:23.673Z,4.57
2018-03-24T08:38:27.006Z,5.80
2018-03-24T08:41:30.284Z,5.43
2018-03-24T08:44:34.358Z,4.82
2018-03-24T08:47:38.585Z,4.73
2018-03-24T08:50:41.873Z,3.90
2018-03-24T08:53:46.138Z,4.47
2018-03-24T08:56:49.973Z,4.17
2018-03-24T08:59:53.260Z,4.63
2018-03-24T09:02:56.605Z,4.27
2018-03-24T09:06:01.126Z,5.03
2018-03-24T09:09:05.552Z,5.10
2018-03-24T09:12:08.886Z,4.90
2018-03-24T09:15:12.148Z,5.60
2018-03-24T09:18:16.414Z,5.90
2018-03-24T09:21:19.690Z,5.60
2018-03-24T09:24:23.036Z,5.03
2018-03-24T09:27:26.359Z,5.70
2018-03-24T09:30:29.623Z,4.53
2018-03-24T09:33:32.870Z,5.03
2018-03-24T09:36:36.272Z,4.57
2018-03-24T09:39:39.746Z,5.03
2018-03-24T09:42:43.770Z,4.63
2018-03-24T09:45:47.944Z,5.00
2018-03-24T09:48:51.601Z,4.97
2018-03-24T09:51:56.463Z,6.20
2018-03-24T09:54:59.734Z,5.07
2018-03-24T09:58:02.989Z,5.60
2018-03-24T10:01:06.297Z,5.23
2018-03-24T10:04:09.572Z,4.83
2018-03-24T10:07:12.824Z,6.50
2018-03-24T10:10:16.109Z,5.30
2018-03-24T10:13:19.388Z,4.90
2018-03-24T10:16:23.620Z,5.93
2018-03-24T10:19:27.697Z,7.43
2018-03-24T10:22:44.373Z,6.97
2018-03-24T10:25:47.646Z,6.23
2018-03-24T10:28:51.711Z,6.20
2018-03-24T10:31:54.994Z,5.70
2018-03-24T10:35:04.707Z,6.07
2018-03-24T10:38:09.035Z,6.47
2018-03-24T10:41:13.074Z,5.00
2018-03-24T10:44:16.352Z,6.03
2018-03-24T10:47:20.415Z,5.73
2018-03-24T10:50:23.733Z,5.40
2018-03-24T10:53:27.186Z,5.30
2018-03-24T10:56:31.088Z,6.13
2018-03-24T10:59:34.382Z,5.73
2018-03-24T11:02:38.414Z,5.07
2018-03-24T11:05:41.745Z,5.03
2018-03-24T11:08:45.009Z,5.27
2018-03-24T11:11:48.344Z,4.63
2018-03-24T11:14:52.419Z,5.83
2018-03-24T11:17:55.742Z,5.60
2018-03-24T11:20:59.118Z,5.63
2018-03-24T11:24:02.399Z,5.40
2018-03-24T11:27:06.424Z,4.83
2018-03-24T11:30:09.696Z,5.60
2018-03-24T11:33:14.082Z,4.80
2018-03-24T11:36:17.349Z,5.30
2018-03-24T11:39:20.625Z,6.07
2018-03-24T11:42:24.663Z,5.23
2018-03-24T11:45:27.931Z,6.45
2018-03-24T11:48:31.210Z,5.83
2018-03-24T11:51:35.326Z,6.87
2018-03-24T11:54:44.957Z,6.63
2018-03-24T11:57:49.017Z,6.13
2018-03-24T12:00:52.284Z,6.23
2018-03-24T12:03:56.344Z,6.20
2018-03-24T12:06:59.722Z,5.77
2018-03-24T12:10:03.032Z,6.10
2018-03-24T12:13:06.311Z,5.83
2018-03-24T12:16:09.590Z,6.73
2018-03-24T12:19:13.648Z,6.87
2018-03-24T12:22:16.914Z,6.83
2018-03-24T12:25:21.204Z,6.60
2018-03-24T12:28:24.471Z,6.13
2018-03-24T12:31:27.742Z,6.30
2018-03-24T12:34:31.005Z,6.30
2018-03-24T12:37:37.506Z,6.13
2018-03-24T12:40:40.790Z,6.07
2018-03-24T12:43:44.108Z,6.07
2018-03-24T12:46:47.405Z,5.90
2018-03-24T12:49:50.698Z,5.57
2018-03-24T12:52:54.064Z,6.00
2018-03-24T12:55:58.108Z,6.50
2018-03-24T12:59:01.378Z,6.33
2018-03-24T13:02:05.456Z,6.10
2018-03-24T13:05:08.729Z,5.53
2018-03-24T13:08:11.988Z,4.93
2018-03-24T13:11:16.076Z,5.27
2018-03-24T13:14:19.357Z,5.07
2018-03-24T13:17:22.636Z,4.63
2018-03-24T13:20:25.925Z,4.63
2018-03-24T13:23:29.245Z,4.70
2018-03-24T13:26:32.501Z,5.13
2018-03-24T13:29:36.649Z,4.53
2018-03-24T13:32:39.917Z,5.30
2018-03-24T13:35:44.028Z,4.22
2018-03-24T13:38:49.316Z,4.97
2018-03-24T13:41:52.646Z,4.53
2018-03-24T13:44:55.926Z,5.23
2018-03-24T13:47:59.324Z,5.03
2018-03-24T13:51:04.067Z,4.93
2018-03-24T13:54:07.393Z,4.73
2018-03-24T13:57:11.446Z,4.43
2018-03-24T14:00:16.421Z,5.00
2018-03-24T14:03:19.732Z,5.03
2018-03-24T14:06:23.813Z,5.43
2018-03-24T14:09:27.503Z,4.95
2018-03-24T14:12:30.778Z,5.33
2018-03-24T14:15:34.045Z,4.87
2018-03-24T14:18:38.083Z,5.10
2018-03-24T14:21:42.145Z,5.63
2018-03-24T14:24:45.777Z,5.00
2018-03-24T14:27:49.081Z,4.90
2018-03-24T14:30:52.354Z,4.90
2018-03-24T14:33:55.650Z,4.57
2018-03-24T14:36:58.914Z,4.03
2018-03-24T14:40:02.824Z,5.10
2018-03-24T14:43:06.094Z,5.00
2018-03-24T14:46:10.429Z,5.20
2018-03-24T14:49:14.477Z,4.93
2018-03-24T14:52:17.934Z,5.10
2018-03-24T14:55:22.069Z,6.28
2018-03-24T14:58:25.667Z,4.90
2018-03-24T15:01:29.988Z,5.73
2018-03-24T15:04:34.076Z,5.90
2018-03-24T15:07:38.115Z,6.73
2018-03-24T15:10:42.146Z,6.60
2018-03-24T15:13:45.437Z,6.13
2018-03-24T15:16:48.727Z,6.43
2018-03-24T15:19:53.040Z,6.47
2018-03-24T15:22:57.090Z,6.80
2018-03-24T15:26:00.353Z,7.73
2018-03-24T15:29:22.309Z,7.20
2018-03-24T15:32:53.416Z,7.63
2018-03-24T15:36:14.427Z,6.70
2018-03-24T15:39:17.743Z,8.27
2018-03-24T15:42:21.220Z,7.00
2018-03-24T15:45:24.531Z,8.37
2018-03-24T15:48:27.803Z,8.47
2018-03-24T15:51:31.117Z,7.70
2018-03-24T15:54:35.381Z,7.47
2018-03-24T15:57:38.655Z,8.37
2018-03-24T16:00:42.725Z,7.77
2018-03-24T16:03:46.230Z,7.03
2018-03-24T16:06:49.550Z,8.15
2018-03-24T16:09:52.822Z,7.63
2018-03-24T16:12:56.163Z,9.03
2018-03-24T16:15:59.429Z,8.95
2018-03-24T16:19:02.800Z,7.83
2018-03-24T16:22:06.058Z,9.53
2018-03-24T16:25:09.336Z,8.25
2018-03-24T16:28:12.780Z,9.33
2018-03-24T16:31:16.084Z,8.63
2018-03-24T16:34:19.363Z,8.82
2018-03-24T16:37:23.434Z,9.40
2018-03-24T16:40:26.718Z,8.57
2018-03-24T16:43:30.298Z,8.10
2018-03-24T16:46:34.475Z,8.67
2018-03-24T16:49:37.869Z,9.20
2018-03-24T16:52:41.153Z,8.80
2018-03-24T16:55:46.541Z,8.20
2018-03-24T16:58:50.530Z,8.83
2018-03-24T17:01:54.313Z,8.93
2018-03-24T17:04:57.586Z,8.23
2018-03-24T17:08:00.853Z,8.57
2018-03-24T17:11:04.380Z,9.50
2018-03-24T17:14:08.466Z,10.40
2018-03-24T17:17:11.799Z,8.87
2018-03-24T17:20:15.075Z,8.27
2018-03-24T17:23:18.414Z,8.27
2018-03-24T17:26:21.702Z,9.33
2018-03-24T17:29:24.986Z,8.50
2018-03-24T17:32:29.273Z,9.20
2018-03-24T17:35:32.913Z,9.07
2018-03-24T17:38:37.033Z,8.40
2018-03-24T17:41:41.285Z,8.43
2018-03-24T17:44:44.677Z,8.83
2018-03-24T17:47:47.965Z,8.97
2018-03-24T17:50:51.253Z,9.07
2018-03-24T17:53:54.673Z,9.02
2018-03-24T17:56:57.940Z,8.57
2018-03-24T18:00:01.978Z,8.67
2018-03-24T18:03:05.229Z,8.67
2018-03-24T18:06:08.732Z,8.67
2018-03-24T18:09:12.810Z,8.77
2018-03-24T18:12:16.113Z,10.67
2018-03-24T18:15:19.613Z,17.60
2018-03-24T18:18:22.899Z,18.93
2018-03-24T18:21:26.322Z,15.50
2018-03-24T18:24:29.850Z,10.57
2018-03-24T18:27:33.118Z,19.83
2018-03-24T18:30:36.390Z,15.63
2018-03-24T18:33:39.784Z,13.77
2018-03-24T18:36:43.060Z,13.93
2018-03-24T18:39:47.234Z,14.40
2018-03-24T18:42:50.512Z,14.10
2018-03-24T18:45:53.855Z,12.55
2018-03-24T18:48:58.029Z,8.77
2018-03-24T18:52:01.305Z,8.67
2018-03-24T18:55:05.364Z,7.67
2018-03-24T18:58:08.658Z,8.20
2018-03-24T19:01:11.939Z,8.90
2018-03-24T19:04:15.217Z,16.87
2018-03-24T19:07:18.719Z,15.97
2018-03-24T19:10:22.071Z,12.93
2018-03-24T19:13:25.667Z,12.87
2018-03-24T19:16:29.084Z,12.67
2018-03-24T19:19:32.912Z,13.50
2018-03-24T19:22:37.040Z,14.57
2018-03-24T19:25:40.721Z,14.37
2018-03-24T19:28:44.082Z,12.50
2018-03-24T19:31:47.547Z,12.90
2018-03-24T19:34:51.606Z,10.97
2018-03-24T19:37:54.973Z,11.97
2018-03-24T19:40:58.257Z,11.55
2018-03-24T19:44:02.300Z,11.00
2018-03-24T19:47:05.594Z,11.33
2018-03-24T19:50:10.429Z,10.17
2018-03-24T19:53:14.442Z,10.47
2018-03-24T19:56:17.753Z,8.97
2018-03-24T19:59:21.133Z,8.63
2018-03-24T20:02:24.681Z,8.10
2018-03-24T20:05:28.085Z,7.70
2018-03-24T20:08:31.432Z,7.70
2018-03-24T20:11:34.714Z,9.00
2018-03-24T20:14:38.771Z,7.93
2018-03-24T20:17:42.069Z,7.00
2018-03-24T20:20:45.394Z,7.17
2018-03-24T20:23:48.676Z,6.47
2018-03-24T20:26:51.995Z,7.57
2018-03-24T20:29:55.286Z,7.37
2018-03-24T20:32:58.562Z,7.17
2018-03-24T20:36:02.100Z,7.87
2018-03-24T20:39:05.524Z,6.10
2018-03-24T20:42:09.647Z,5.90
2018-03-24T20:45:13.697Z,7.53
2018-03-24T20:48:16.968Z,8.43
2018-03-24T20:51:20.889Z,7.27
2018-03-24T20:54:24.167Z,14.73
2018-03-24T20:57:27.577Z,11.60
2018-03-24T21:00:30.986Z,9.30
2018-03-24T21:03:34.254Z,7.63
2018-03-24T21:06:38.318Z,7.03
2018-03-24T21:09:41.618Z,7.12
2018-03-24T21:12:44.887Z,7.03
2018-03-24T21:15:48.200Z,8.00
2018-03-24T21:18:52.204Z,7.50
2018-03-24T21:21:55.494Z,9.03
2018-03-24T21:24:58.998Z,9.63
2018-03-24T21:28:02.332Z,9.30
2018-03-24T21:31:05.616Z,10.17
2018-03-24T21:34:08.920Z,7.93
2018-03-24T21:37:12.218Z,8.60
2018-03-24T21:40:15.510Z,7.77
2018-03-24T21:43:18.793Z,9.73
2018-03-24T21:46:22.085Z,7.73
2018-03-24T21:49:25.443Z,7.07
2018-03-24T21:52:29.216Z,7.77
2018-03-24T21:55:33.091Z,7.70
2018-03-24T21:58:37.148Z,6.63
2018-03-24T22:01:40.449Z,7.80
2018-03-24T22:04:45.121Z,8.77
2018-03-24T22:07:49.206Z,7.70
2018-03-24T22:10:52.575Z,8.07
2018-03-24T22:13:56.538Z,7.33
2018-03-24T22:16:59.836Z,7.73
2018-03-24T22:20:07.594Z,6.20
2018-03-24T22:23:11.205Z,9.10
2018-03-24T22:26:14.676Z,7.10
2018-03-24T22:29:18.101Z,7.53
2018-03-24T22:32:21.395Z,7.43
2018-03-24T22:35:25.425Z,7.80
2018-03-24T22:38:28.881Z,7.60
2018-03-24T22:41:32.189Z,8.17
2018-03-24T22:44:35.468Z,7.33
2018-03-24T22:47:38.763Z,8.30
2018-03-24T22:50:42.043Z,8.73
2018-03-24T22:53:45.334Z,6.95
2018-03-24T22:56:48.623Z,8.43
2018-03-24T22:59:51.979Z,7.43
2018-03-24T23:02:55.295Z,7.37
2018-03-24T23:06:00.352Z,8.00
2018-03-24T23:09:03.657Z,7.85
2018-03-24T23:12:07.723Z,7.60
2018-03-24T23:15:11.021Z,6.50
2018-03-24T23:18:14.317Z,9.33
2018-03-24T23:21:19.169Z,8.55
2018-03-24T23:24:23.248Z,8.15
2018-03-24T23:27:26.526Z,8.57
2018-03-24T23:30:29.851Z,8.70
2018-03-24T23:33:33.122Z,9.53
2018-03-24T23:36:36.430Z,11.80
2018-03-24T23:39:39.741Z,9.55
2018-03-24T23:42:43.042Z,9.33
2018-03-24T23:45:46.670Z,10.30
2018-03-24T23:48:50.738Z,9.23
2018-03-24T23:51:54.121Z,8.97
2018-03-24T23:54:57.416Z,8.97
2018-03-24T23:58:00.731Z,9.10
